Bei Facebook empfehlenBei Twitter postenGoogle plusPinterest

Das Wetter im Erzgebirge am 18.12.2016

Wetter und Klima am 18.12.2016 Holzhau im Erzgebirge (630m ü.NN)
Letzte gemessene Temperatur und Uhrzeit der Messung23:45:00 Uhr-0.10 °C
Temperatur (Maximum / Höchstwert) und Uhrzeit der Messung05:45:00 Uhr0.50 °C
Temperatur (Minimum / Tiefstwert) und Uhrzeit der Messung00:00:00-1.70 °C
Errechneter Absolutwert der Temperaturschwankungen zwischen Tmin und Tmax des Tages2.20 K
Errechnete Tagesmitteltemperatur-0.01563 °C
Gesamt - Niederschlag des Tages (in flüssiger Form)0.52 Liter / m²
Luftdruck (Maximum / Höchstwert) und Zeitpunkt der Messung00:00:00 Uhr1030.60 hPa
Luftdruck (Minimum / Tiefstwert) und Zeitpunkt der Messung18:00:00 Uhr1025.20 hPa
Errechneter Absolutwert der Luftdruckschwankungen des Tages5.40 hPa
Höchste gemessene Windgeschwindigkeit und Uhrzeit der Messung23:45:00 Uhr0.00 km/h
Errechnete Windhäufigkeit in Relation zu den Messwerten des Tages0.00000 %
Niedrigste Windkühle (Windchill) und Zeitpunkt der Messung00:00:00 Uhr-1.70 °C
Taupunkt (Maximum / Höchstwert) und Uhrzeit der Messung13:30:00 Uhr0.00 °C
Taupunkt (Minimum / Tiefstwert) und Uhrzeit der Messung00:00:00-2.60 °C
Anzahl der automatisch eingelesenen Messwerte 96

Detaillierte Wetter- und Klima- Messwerte für den 18.12.2016 in Holzhau im Erzgebirge (630m ü.NN)
ZeitTemperaturLuftdruckRel. LuftfeuchteWindWindrichtungWindchillTaupunktNiederschlag l/m²
23:45:00-0.10 °C1026.10 hPa97.00 %-0.60 °C0.52
23:30:00-0.10 °C1025.90 hPa97.00 %-0.60 °C0.52
23:15:00-0.10 °C1026.00 hPa97.00 %-0.60 °C0.52
23:00:00-0.10 °C1025.90 hPa97.00 %-0.60 °C0.52
22:45:00-0.10 °C1025.90 hPa97.00 %-0.60 °C0.52
22:30:00-0.10 °C1025.90 hPa97.00 %-0.60 °C0.52
22:15:00-0.10 °C1025.90 hPa97.00 %-0.60 °C0.52
22:00:00-0.10 °C1025.90 hPa97.00 %-0.60 °C0.52
21:45:00-0.10 °C1026.00 hPa97.00 %-0.60 °C0.52
21:30:00-0.10 °C1025.80 hPa97.00 %-0.60 °C0.52
21:15:00-0.10 °C1025.80 hPa97.00 %-0.60 °C0.52
21:00:00-0.10 °C1025.80 hPa97.00 %-0.60 °C0.52
20:45:00-0.10 °C1025.70 hPa97.00 %-0.60 °C0.52
20:30:00-0.10 °C1025.70 hPa97.00 %-0.60 °C0.52
20:15:00-0.10 °C1025.70 hPa97.00 %-0.60 °C0.52
20:00:00-0.10 °C1025.50 hPa97.00 %-0.60 °C0.52
19:45:00-0.10 °C1025.40 hPa97.00 %-0.60 °C0.52
19:30:00-0.10 °C1025.40 hPa97.00 %-0.60 °C0.52
19:15:00-0.10 °C1025.30 hPa97.00 %-0.60 °C0.52
19:00:00-0.10 °C1025.40 hPa97.00 %-0.60 °C0.52
18:45:00-0.10 °C1025.40 hPa97.00 %-0.60 °C0.52
18:30:00-0.10 °C1025.40 hPa97.00 %-0.60 °C0.52
18:15:000.00 °C1025.30 hPa97.00 %-0.50 °C0.52
18:00:00-0.10 °C1025.20 hPa97.00 %-0.60 °C0.52
17:45:000.00 °C1025.20 hPa97.00 %-0.50 °C0.52
17:30:000.00 °C1025.30 hPa97.00 %-0.50 °C0.52
17:15:000.00 °C1025.50 hPa97.00 %-0.50 °C0.52
17:00:000.10 °C1025.30 hPa97.00 %-0.30 °C0.52
16:45:000.10 °C1025.30 hPa97.00 %-0.30 °C0.52
16:30:000.10 °C1025.70 hPa97.00 %-0.30 °C0.52
16:15:000.10 °C1025.60 hPa97.00 %-0.30 °C0.52
16:00:000.10 °C1025.60 hPa97.00 %-0.30 °C0.52
15:45:000.10 °C1025.50 hPa97.00 %-0.30 °C0.52
15:30:000.10 °C1025.60 hPa97.00 %-0.30 °C0.52
15:15:000.20 °C1025.70 hPa97.00 %-0.20 °C0.52
15:00:000.20 °C1025.60 hPa97.00 %-0.20 °C0.52
14:45:000.30 °C1025.70 hPa97.00 %-0.10 °C0.52
14:30:000.20 °C1025.60 hPa97.00 %-0.20 °C0.52
14:15:000.20 °C1025.70 hPa97.00 %-0.20 °C0.52
14:00:000.20 °C1025.70 hPa97.00 %-0.20 °C0.52
13:45:000.30 °C1025.70 hPa97.00 %-0.10 °C0.52
13:30:000.40 °C1025.70 hPa97.00 %0.00 °C0.52
13:15:000.30 °C1025.90 hPa97.00 %-0.10 °C0.52
13:00:000.30 °C1025.90 hPa97.00 %-0.10 °C0.52
12:45:000.30 °C1026.10 hPa97.00 %-0.10 °C0.52
12:30:000.30 °C1026.50 hPa97.00 %-0.10 °C0.52
12:15:000.20 °C1026.40 hPa97.00 %-0.20 °C0.52
12:00:000.20 °C1026.50 hPa97.00 %-0.20 °C0.52
11:45:000.10 °C1026.90 hPa97.00 %-0.30 °C0.52
11:30:000.10 °C1027.10 hPa97.00 %-0.30 °C0.52
11:15:000.10 °C1027.30 hPa97.00 %-0.30 °C0.52
11:00:000.10 °C1027.60 hPa97.00 %-0.30 °C0.52
10:45:000.20 °C1027.60 hPa97.00 %-0.20 °C0.52
10:30:000.20 °C1027.70 hPa97.00 %-0.20 °C 
10:15:000.10 °C1027.70 hPa97.00 %-0.30 °C 
10:00:000.10 °C1027.90 hPa97.00 %-0.30 °C 
09:45:000.00 °C1028.00 hPa96.00 %-0.60 °C 
09:30:00-0.10 °C1027.90 hPa96.00 %-0.70 °C 
09:15:00-0.10 °C1027.90 hPa96.00 %-0.70 °C 
09:00:00-0.10 °C1027.80 hPa96.00 %-0.70 °C 
08:45:00-0.10 °C1027.90 hPa96.00 %-0.70 °C 
08:30:000.10 °C1028.20 hPa96.00 %-0.50 °C 
08:15:000.20 °C1028.00 hPa96.00 %-0.40 °C 
08:00:000.10 °C1027.20 hPa96.00 %-0.50 °C 
07:45:000.20 °C1027.50 hPa96.00 %-0.40 °C 
07:30:000.30 °C1027.70 hPa96.00 %-0.30 °C 
07:15:000.30 °C1027.90 hPa96.00 %-0.30 °C 
07:00:000.30 °C1028.30 hPa96.00 %-0.30 °C 
06:45:000.30 °C1028.50 hPa96.00 %-0.30 °C 
06:30:000.40 °C1028.60 hPa96.00 %-0.20 °C 
06:15:000.40 °C1028.70 hPa96.00 %-0.20 °C 
06:00:000.40 °C1028.80 hPa96.00 %-0.20 °C 
05:45:000.50 °C1028.60 hPa96.00 %-0.10 °C 
05:30:000.40 °C1028.50 hPa96.00 %-0.20 °C 
05:15:000.40 °C1028.80 hPa96.00 %-0.20 °C 
05:00:000.40 °C1029.20 hPa96.00 %-0.20 °C 
04:45:000.40 °C1029.20 hPa96.00 %-0.20 °C 
04:30:000.40 °C1029.30 hPa96.00 %-0.20 °C 
04:15:000.30 °C1029.50 hPa96.00 %-0.30 °C 
04:00:000.40 °C1029.60 hPa96.00 %-0.20 °C 
03:45:000.40 °C1029.70 hPa96.00 %-0.20 °C 
03:30:000.40 °C1029.90 hPa96.00 %-0.20 °C 
03:15:000.30 °C1030.10 hPa96.00 %-0.30 °C 
03:00:000.20 °C1030.00 hPa96.00 %-0.40 °C 
02:45:000.10 °C1030.00 hPa96.00 %-0.50 °C 
02:30:00-0.20 °C1029.90 hPa95.00 %-1.00 °C 
02:15:00-0.50 °C1030.00 hPa95.00 %-1.30 °C 
02:00:00-0.80 °C1030.00 hPa95.00 %-1.60 °C 
01:45:00-0.90 °C1030.00 hPa95.00 %-1.70 °C 
01:30:00-1.10 °C1030.10 hPa95.00 %-1.90 °C 
01:15:00-1.10 °C1030.00 hPa95.00 %-1.90 °C 
01:00:00-1.10 °C1030.00 hPa95.00 %-1.90 °C 
00:45:00-1.20 °C1030.20 hPa95.00 %-2.00 °C 
00:30:00-1.50 °C1030.40 hPa94.00 %-2.40 °C 
00:15:00-1.60 °C1030.50 hPa94.00 %-2.50 °C 
00:00:00-1.70 °C1030.60 hPa94.00 %-2.60 °C 

Permanenter Link zu dieser Seite: Wetter im Erzgebirge am 18.12.2016
Performance-Info: Die Erstellung der Seite / Statistik(en) / Tabelle(n) erforderte 5 Datenbankserver-Abfrage(n) und dauerte 123 Millisekunden. (Dieser Messwert ist von der Gesamt-Auslastung des Servers abhängig.)
Erzgebirge - Wetter | Erzgebirge - Wetter (Mobilgeräte) | Komplette Klimadatenbank